createdAt,value
2022-08-26T00:00:19.986Z,3.70
2022-08-26T00:02:47.951Z,3.50
2022-08-26T00:05:16.370Z,3.90
2022-08-26T00:07:45.515Z,4.13
2022-08-26T00:10:15.789Z,3.37
2022-08-26T00:12:43.958Z,4.07
2022-08-26T00:15:15.873Z,3.40
2022-08-26T00:17:44.972Z,3.67
2022-08-26T00:20:16.699Z,3.80
2022-08-26T00:22:44.901Z,3.33
2022-08-26T00:25:15.962Z,3.80
2022-08-26T00:27:45.710Z,3.47
2022-08-26T00:30:16.989Z,3.80
2022-08-26T00:32:51.324Z,3.53
2022-08-26T00:35:20.683Z,3.20
2022-08-26T00:37:48.877Z,4.00
2022-08-26T00:40:22.350Z,3.77
2022-08-26T00:42:50.759Z,3.37
2022-08-26T00:45:18.941Z,3.70
2022-08-26T00:47:51.244Z,3.90
2022-08-26T00:50:24.033Z,3.30
2022-08-26T00:52:55.687Z,4.20
2022-08-26T00:55:34.633Z,4.27
2022-08-26T00:58:08.518Z,3.77
2022-08-26T01:00:36.594Z,3.97
2022-08-26T01:03:05.599Z,3.57
2022-08-26T01:05:40.345Z,3.70
2022-08-26T01:08:08.372Z,3.63
2022-08-26T01:10:37.915Z,3.23
2022-08-26T01:13:10.163Z,4.00
2022-08-26T01:15:43.407Z,3.90
2022-08-26T01:18:13.839Z,3.60
2022-08-26T01:20:52.827Z,3.63
2022-08-26T01:23:29.312Z,3.30
2022-08-26T01:26:01.668Z,3.87
2022-08-26T01:28:33.737Z,4.10
2022-08-26T01:31:05.348Z,3.60
2022-08-26T01:33:42.096Z,3.37
2022-08-26T01:36:12.961Z,3.53
2022-08-26T01:38:43.724Z,3.60
2022-08-26T01:41:16.243Z,3.53
2022-08-26T01:43:51.867Z,3.83
2022-08-26T01:46:21.976Z,3.97
2022-08-26T01:48:54.482Z,3.50
2022-08-26T01:51:25.572Z,3.43
2022-08-26T01:53:57.888Z,3.70
2022-08-26T01:56:33.160Z,3.37
2022-08-26T01:59:07.920Z,3.73
2022-08-26T02:01:37.797Z,3.87
2022-08-26T02:04:16.060Z,3.20
2022-08-26T02:06:45.317Z,3.77
2022-08-26T02:09:15.756Z,3.67
2022-08-26T02:11:45.122Z,3.90
2022-08-26T02:14:17.965Z,4.03
2022-08-26T02:16:50.350Z,4.03
2022-08-26T02:19:23.538Z,4.13
2022-08-26T02:21:53.265Z,4.17
2022-08-26T02:24:27.509Z,3.50
2022-08-26T02:26:57.593Z,3.97
2022-08-26T02:29:31.824Z,3.73
2022-08-26T02:32:00.168Z,3.80
2022-08-26T02:34:31.948Z,3.50
2022-08-26T02:37:01.757Z,3.77
2022-08-26T02:39:32.256Z,4.03
2022-08-26T02:42:00.348Z,4.13
2022-08-26T02:44:31.602Z,3.83
2022-08-26T02:47:01.789Z,3.97
2022-08-26T02:49:30.437Z,3.93
2022-08-26T02:52:01.942Z,4.20
2022-08-26T02:54:31.526Z,3.90
2022-08-26T02:57:01.630Z,3.77
2022-08-26T02:59:31.332Z,3.83
2022-08-26T03:02:00.403Z,4.07
2022-08-26T03:04:29.524Z,4.00
2022-08-26T03:07:01.441Z,4.13
2022-08-26T03:09:30.975Z,4.73
2022-08-26T03:11:59.051Z,3.97
2022-08-26T03:14:27.682Z,4.30
2022-08-26T03:16:57.862Z,5.00
2022-08-26T03:19:27.733Z,4.10
2022-08-26T03:21:57.885Z,4.70
2022-08-26T03:24:26.607Z,4.70
2022-08-26T03:26:56.033Z,4.03
2022-08-26T03:29:42.026Z,4.60
2022-08-26T03:32:10.994Z,5.20
2022-08-26T03:34:39.022Z,4.43
2022-08-26T03:37:07.705Z,5.23
2022-08-26T03:39:36.217Z,4.87
2022-08-26T03:42:06.259Z,5.50
2022-08-26T03:44:37.030Z,4.73
2022-08-26T03:47:10.198Z,4.80
2022-08-26T03:49:38.456Z,4.97
2022-08-26T03:52:07.701Z,4.70
2022-08-26T03:54:35.683Z,5.27
2022-08-26T03:57:05.332Z,5.37
2022-08-26T03:59:33.783Z,5.00
2022-08-26T04:02:02.036Z,5.37
2022-08-26T04:04:30.721Z,4.43
2022-08-26T04:07:00.940Z,5.10
2022-08-26T04:09:29.177Z,4.70
2022-08-26T04:11:58.624Z,4.93
2022-08-26T04:14:31.419Z,4.67
2022-08-26T04:17:00.576Z,4.43
2022-08-26T04:19:28.572Z,4.87
2022-08-26T04:21:56.685Z,5.13
2022-08-26T04:24:27.998Z,4.37
2022-08-26T04:26:56.546Z,4.10
2022-08-26T04:29:28.233Z,4.80
2022-08-26T04:31:57.000Z,4.60
2022-08-26T04:34:29.393Z,4.43
2022-08-26T04:36:57.776Z,4.70
2022-08-26T04:39:27.675Z,4.53
2022-08-26T04:41:57.873Z,3.90
2022-08-26T04:44:27.629Z,4.53
2022-08-26T04:46:58.380Z,4.40
2022-08-26T04:49:27.636Z,4.13
2022-08-26T04:51:56.083Z,4.27
2022-08-26T04:54:25.131Z,4.13
2022-08-26T04:56:53.289Z,4.47
2022-08-26T04:59:21.339Z,4.30
2022-08-26T05:01:52.290Z,4.30
2022-08-26T05:04:22.138Z,4.53
2022-08-26T05:06:50.525Z,4.47
2022-08-26T05:09:20.318Z,4.50
2022-08-26T05:11:52.073Z,4.93
2022-08-26T05:14:21.166Z,4.27
2022-08-26T05:16:50.755Z,4.63
2022-08-26T05:19:19.488Z,4.47
2022-08-26T05:21:49.470Z,4.57
2022-08-26T05:24:18.280Z,4.73
2022-08-26T05:26:46.951Z,5.40
2022-08-26T05:29:16.134Z,4.90
2022-08-26T05:31:44.956Z,5.07
2022-08-26T05:34:13.322Z,5.20
2022-08-26T05:36:42.170Z,5.47
2022-08-26T05:39:11.833Z,4.77
2022-08-26T05:41:42.102Z,4.73
2022-08-26T05:44:14.037Z,5.63
2022-08-26T05:46:43.965Z,5.20
2022-08-26T05:49:13.072Z,5.30
2022-08-26T05:51:41.851Z,5.33
2022-08-26T05:54:11.307Z,5.30
2022-08-26T05:56:40.306Z,4.87
2022-08-26T05:59:15.353Z,5.67
2022-08-26T06:01:44.715Z,5.80
2022-08-26T06:04:13.119Z,5.83
2022-08-26T06:06:42.940Z,6.27
2022-08-26T06:09:13.082Z,5.40
2022-08-26T06:11:41.167Z,6.20
2022-08-26T06:14:11.811Z,6.20
2022-08-26T06:16:45.234Z,5.93
2022-08-26T06:19:19.283Z,5.97
2022-08-26T06:21:54.310Z,5.90
2022-08-26T06:24:41.940Z,6.17
2022-08-26T06:27:13.769Z,6.00
2022-08-26T06:29:43.280Z,5.77
2022-08-26T06:32:11.540Z,5.50
2022-08-26T06:34:40.583Z,6.50
2022-08-26T06:37:09.920Z,6.30
2022-08-26T06:39:40.217Z,6.80
2022-08-26T06:42:11.997Z,7.00
2022-08-26T06:44:40.958Z,6.00
2022-08-26T06:47:09.178Z,6.57
2022-08-26T06:49:38.065Z,6.90
2022-08-26T06:52:07.795Z,7.60
2022-08-26T06:54:43.032Z,8.27
2022-08-26T06:57:11.466Z,7.70
2022-08-26T06:59:39.580Z,7.47
2022-08-26T07:02:09.111Z,9.00
2022-08-26T07:04:41.844Z,9.17
2022-08-26T07:07:13.986Z,9.73
2022-08-26T07:09:43.513Z,11.10
2022-08-26T07:12:12.118Z,8.97
2022-08-26T07:14:41.300Z,10.70
2022-08-26T07:17:15.656Z,9.57
2022-08-26T07:19:44.862Z,9.90
2022-08-26T07:22:14.087Z,10.30
2022-08-26T07:24:54.869Z,9.47
2022-08-26T07:27:23.944Z,9.57
2022-08-26T07:29:52.189Z,9.97
2022-08-26T07:32:22.930Z,9.80
2022-08-26T07:34:51.115Z,9.93
2022-08-26T07:37:19.693Z,8.90
2022-08-26T07:39:49.994Z,10.20
2022-08-26T07:42:19.649Z,10.10
2022-08-26T07:44:47.992Z,8.70
2022-08-26T07:47:24.906Z,9.37
2022-08-26T07:49:56.580Z,9.03
2022-08-26T07:52:27.207Z,8.83
2022-08-26T07:55:01.447Z,9.53
2022-08-26T07:57:34.506Z,9.67
2022-08-26T08:00:03.803Z,10.60
2022-08-26T08:02:31.863Z,10.60
2022-08-26T08:05:00.164Z,9.93
2022-08-26T08:07:44.979Z,10.73
2022-08-26T08:10:18.999Z,10.43
2022-08-26T08:12:49.740Z,9.43
2022-08-26T08:15:20.114Z,11.40
2022-08-26T08:17:50.508Z,8.67
2022-08-26T08:20:20.945Z,10.77
2022-08-26T08:22:51.739Z,10.77
2022-08-26T08:25:24.557Z,12.20
2022-08-26T08:27:52.651Z,9.80
2022-08-26T08:30:23.316Z,8.23
2022-08-26T08:32:51.751Z,7.87
2022-08-26T08:35:23.761Z,7.73
2022-08-26T08:37:54.782Z,7.23
2022-08-26T08:40:27.104Z,7.03
2022-08-26T08:43:01.123Z,8.37
2022-08-26T08:45:36.742Z,10.87
2022-08-26T08:48:12.854Z,13.20
2022-08-26T08:50:45.705Z,11.37
2022-08-26T08:53:16.981Z,13.30
2022-08-26T08:55:54.358Z,15.47
2022-08-26T08:58:30.182Z,15.03
2022-08-26T09:01:04.565Z,17.47
2022-08-26T09:03:46.501Z,19.03
2022-08-26T09:06:18.847Z,18.70
2022-08-26T09:08:50.087Z,19.90
2022-08-26T09:11:21.405Z,20.50
2022-08-26T09:13:52.522Z,16.43
2022-08-26T09:16:27.056Z,19.20
2022-08-26T09:19:14.441Z,16.53
2022-08-26T09:21:42.634Z,17.33
2022-08-26T09:24:11.360Z,17.53
2022-08-26T09:26:48.569Z,16.73
2022-08-26T09:29:24.832Z,18.20
2022-08-26T09:32:14.658Z,15.93
2022-08-26T09:34:55.432Z,13.67
2022-08-26T09:37:39.185Z,14.63
2022-08-26T09:40:30.386Z,15.27
2022-08-26T09:43:22.609Z,14.63
2022-08-26T09:45:58.482Z,13.77
2022-08-26T09:48:31.715Z,13.10
2022-08-26T09:51:06.909Z,15.20
2022-08-26T09:53:38.899Z,14.20
2022-08-26T09:56:18.982Z,14.60
2022-08-26T09:58:50.173Z,16.40
2022-08-26T10:01:30.099Z,16.27
2022-08-26T10:04:09.716Z,15.73
2022-08-26T10:06:47.763Z,17.87
2022-08-26T10:09:19.681Z,17.93
2022-08-26T10:11:52.105Z,15.73
2022-08-26T10:14:26.471Z,14.70
2022-08-26T10:16:59.862Z,14.37
2022-08-26T10:19:41.836Z,18.70
2022-08-26T10:22:28.870Z,15.37
2022-08-26T10:25:03.263Z,16.90
2022-08-26T10:27:40.484Z,16.53
2022-08-26T10:30:23.813Z,16.40
2022-08-26T10:32:55.793Z,15.00
2022-08-26T10:35:24.902Z,15.93
2022-08-26T10:37:57.194Z,14.63
2022-08-26T10:40:28.767Z,15.00
2022-08-26T10:43:07.213Z,15.30
2022-08-26T10:45:47.625Z,15.33
2022-08-26T10:48:22.785Z,16.57
2022-08-26T10:50:51.429Z,16.80
2022-08-26T10:53:32.697Z,15.63
2022-08-26T10:56:06.571Z,17.30
2022-08-26T10:59:02.592Z,17.10
2022-08-26T11:01:50.791Z,16.90
2022-08-26T11:04:34.940Z,16.07
2022-08-26T11:07:41.328Z,17.40
2022-08-26T11:11:04.338Z,16.63
2022-08-26T11:14:02.665Z,17.77
2022-08-26T11:16:36.013Z,16.40
2022-08-26T11:19:13.938Z,20.53
2022-08-26T11:21:49.528Z,17.50
2022-08-26T11:25:00.443Z,17.60
2022-08-26T11:27:58.042Z,17.97
2022-08-26T11:30:44.019Z,17.83
2022-08-26T11:33:59.642Z,17.65
2022-08-26T11:36:57.242Z,17.33
2022-08-26T11:39:30.457Z,16.67
2022-08-26T11:42:03.086Z,17.93
2022-08-26T11:44:40.654Z,17.60
2022-08-26T11:47:25.775Z,18.53
2022-08-26T11:50:13.162Z,18.13
2022-08-26T11:52:43.192Z,19.05
2022-08-26T11:55:16.206Z,20.08
2022-08-26T11:57:47.180Z,18.40
2022-08-26T12:00:26.847Z,16.75
2022-08-26T12:03:01.097Z,18.52
2022-08-26T12:05:37.553Z,18.45
2022-08-26T12:08:10.478Z,17.70
2022-08-26T12:10:39.721Z,17.33
2022-08-26T12:13:08.775Z,17.30
2022-08-26T12:15:36.816Z,14.90
2022-08-26T12:18:29.348Z,15.88
2022-08-26T12:21:02.365Z,13.23
2022-08-26T12:23:42.124Z,11.33
2022-08-26T12:26:19.349Z,10.40
2022-08-26T12:28:49.559Z,11.83
2022-08-26T12:31:31.197Z,12.27
2022-08-26T12:34:04.005Z,10.80
2022-08-26T12:36:36.180Z,9.13
2022-08-26T12:39:09.368Z,7.00
2022-08-26T12:41:52.902Z,11.15
2022-08-26T12:44:40.460Z,9.90
2022-08-26T12:47:12.217Z,9.93
2022-08-26T12:49:43.875Z,10.60
2022-08-26T12:52:30.765Z,14.67
2022-08-26T12:55:13.634Z,16.13
2022-08-26T12:57:43.867Z,19.77
2022-08-26T13:00:29.827Z,18.83
2022-08-26T13:02:59.405Z,19.97
2022-08-26T13:05:33.854Z,19.10
2022-08-26T13:08:17.809Z,18.90
2022-08-26T13:10:49.037Z,16.97
2022-08-26T13:13:17.003Z,18.13
2022-08-26T13:15:45.324Z,17.23
2022-08-26T13:18:13.569Z,17.73
2022-08-26T13:20:44.838Z,18.23
2022-08-26T13:23:13.478Z,17.73
2022-08-26T13:25:41.717Z,17.60
2022-08-26T13:28:09.740Z,17.27
2022-08-26T13:30:37.800Z,17.13
2022-08-26T13:33:06.196Z,16.87
2022-08-26T13:35:34.403Z,16.90
2022-08-26T13:38:03.705Z,16.67
2022-08-26T13:40:34.585Z,15.93
2022-08-26T13:43:02.861Z,15.10
2022-08-26T13:45:31.616Z,15.93
2022-08-26T13:48:00.361Z,14.40
2022-08-26T13:50:28.444Z,15.77
2022-08-26T13:52:56.458Z,16.23
2022-08-26T13:55:25.829Z,15.43
2022-08-26T13:57:53.827Z,15.97
2022-08-26T14:00:22.917Z,15.03
2022-08-26T14:02:51.252Z,14.90
2022-08-26T14:05:19.338Z,14.57
2022-08-26T14:07:47.301Z,14.97
2022-08-26T14:10:15.316Z,14.07
2022-08-26T14:12:45.698Z,13.07
2022-08-26T14:15:16.233Z,13.07
2022-08-26T14:17:46.175Z,13.13
2022-08-26T14:20:16.945Z,12.40
2022-08-26T14:23:03.397Z,13.13
2022-08-26T14:25:34.449Z,12.93
2022-08-26T14:28:04.060Z,14.03
2022-08-26T14:30:32.925Z,14.63
2022-08-26T14:33:00.960Z,14.97
2022-08-26T14:35:31.656Z,14.63
2022-08-26T14:37:59.780Z,14.77
2022-08-26T14:40:33.994Z,14.90
2022-08-26T14:43:09.472Z,15.27
2022-08-26T14:48:14.459Z,15.50
2022-08-26T14:50:42.602Z,15.20
2022-08-26T14:53:28.147Z,15.67
2022-08-26T14:55:56.276Z,14.30
2022-08-26T14:58:25.653Z,15.23
2022-08-26T15:01:04.394Z,14.97
2022-08-26T15:03:32.548Z,14.13
2022-08-26T15:06:00.658Z,14.47
2022-08-26T15:08:28.698Z,13.00
2022-08-26T15:10:56.999Z,13.13
2022-08-26T15:13:26.426Z,13.90
2022-08-26T15:15:54.420Z,12.30
2022-08-26T15:18:23.460Z,12.77
2022-08-26T15:21:11.594Z,12.10
2022-08-26T15:23:40.545Z,12.00
2022-08-26T15:26:10.517Z,10.80
2022-08-26T15:28:40.329Z,11.43
2022-08-26T15:31:11.741Z,10.57
2022-08-26T15:33:43.479Z,10.30
2022-08-26T15:36:11.661Z,10.50
2022-08-26T15:38:42.265Z,9.70
2022-08-26T15:41:10.814Z,9.10
2022-08-26T15:43:40.160Z,8.30
2022-08-26T15:46:11.853Z,8.87
2022-08-26T15:48:40.487Z,8.33
2022-08-26T15:51:09.019Z,7.23
2022-08-26T15:53:37.466Z,7.60
2022-08-26T15:56:05.769Z,7.37
2022-08-26T15:58:34.598Z,7.50
2022-08-26T16:01:05.667Z,7.27
2022-08-26T16:03:33.989Z,7.37
2022-08-26T16:06:02.667Z,7.23
2022-08-26T16:08:30.798Z,7.70
2022-08-26T16:11:05.862Z,8.30
2022-08-26T16:13:39.894Z,7.63
2022-08-26T16:16:10.532Z,8.40
2022-08-26T16:18:38.691Z,9.00
2022-08-26T16:21:12.644Z,8.77
2022-08-26T16:23:45.202Z,10.33
2022-08-26T16:26:15.115Z,10.00
2022-08-26T16:28:43.629Z,11.03
2022-08-26T16:31:14.244Z,10.80
2022-08-26T16:33:42.559Z,10.27
2022-08-26T16:36:11.164Z,10.90
2022-08-26T16:38:39.882Z,11.00
2022-08-26T16:41:08.785Z,10.80
2022-08-26T16:43:37.100Z,10.97
2022-08-26T16:46:07.326Z,10.77
2022-08-26T16:48:37.707Z,10.83
2022-08-26T16:51:06.479Z,10.50
2022-08-26T16:53:34.726Z,10.70
2022-08-26T16:56:02.769Z,9.90
2022-08-26T16:58:31.288Z,10.20
2022-08-26T17:01:00.450Z,9.97
2022-08-26T17:03:28.709Z,9.13
2022-08-26T17:05:58.582Z,9.17
2022-08-26T17:08:28.752Z,9.00
2022-08-26T17:10:57.424Z,9.27
2022-08-26T17:13:34.813Z,9.27
2022-08-26T17:16:05.237Z,9.63
2022-08-26T17:18:33.842Z,10.00
2022-08-26T17:21:04.966Z,9.77
2022-08-26T17:23:33.395Z,9.87
2022-08-26T17:26:01.413Z,9.50
2022-08-26T17:28:29.403Z,11.00
2022-08-26T17:30:58.179Z,10.30
2022-08-26T17:33:27.150Z,12.50
2022-08-26T17:35:56.001Z,11.43
2022-08-26T17:38:25.942Z,11.20
2022-08-26T17:40:55.324Z,11.60
2022-08-26T17:43:26.709Z,12.40
2022-08-26T17:46:06.824Z,11.30
2022-08-26T17:48:42.399Z,12.40
2022-08-26T17:51:19.118Z,11.97
2022-08-26T17:53:48.942Z,11.83
2022-08-26T17:56:18.614Z,13.73
2022-08-26T17:58:51.148Z,14.93
2022-08-26T18:01:20.559Z,15.07
2022-08-26T18:03:51.147Z,15.60
2022-08-26T18:06:23.492Z,14.77
2022-08-26T18:08:56.178Z,15.60
2022-08-26T18:11:24.480Z,16.47
2022-08-26T18:13:54.490Z,15.97
2022-08-26T18:16:24.668Z,15.10
2022-08-26T18:18:53.645Z,14.83
2022-08-26T18:21:24.280Z,15.77
2022-08-26T18:23:54.610Z,15.47
2022-08-26T18:26:26.146Z,16.10
2022-08-26T18:28:54.274Z,14.30
2022-08-26T18:31:24.319Z,15.10
2022-08-26T18:33:54.812Z,15.70
2022-08-26T18:36:26.537Z,14.47
2022-08-26T18:38:57.200Z,14.30
2022-08-26T18:41:27.694Z,14.30
2022-08-26T18:43:56.565Z,14.33
2022-08-26T18:46:28.206Z,14.43
2022-08-26T18:48:58.904Z,13.50
2022-08-26T18:51:29.600Z,12.33
2022-08-26T18:54:00.540Z,12.43
2022-08-26T18:56:30.712Z,12.67
2022-08-26T18:58:59.865Z,12.40
2022-08-26T19:01:31.114Z,12.30
2022-08-26T19:04:03.135Z,12.70
2022-08-26T19:06:35.590Z,11.90
2022-08-26T19:09:06.673Z,12.30
2022-08-26T19:11:42.319Z,10.97
2022-08-26T19:14:14.306Z,12.53
2022-08-26T19:16:44.742Z,11.10
2022-08-26T19:19:14.790Z,11.73
2022-08-26T19:21:48.039Z,10.73
2022-08-26T19:24:18.786Z,11.03
2022-08-26T19:26:57.771Z,10.23
2022-08-26T19:29:30.419Z,10.80
2022-08-26T19:31:58.744Z,9.50
2022-08-26T19:34:27.111Z,10.77
2022-08-26T19:36:56.971Z,9.30
2022-08-26T19:39:27.144Z,9.77
2022-08-26T19:41:55.238Z,9.10
2022-08-26T19:44:27.272Z,9.17
2022-08-26T19:46:55.323Z,8.73
2022-08-26T19:49:23.408Z,8.93
2022-08-26T19:51:51.420Z,9.13
2022-08-26T19:54:22.797Z,8.57
2022-08-26T19:56:52.647Z,8.17
2022-08-26T19:59:20.886Z,8.87
2022-08-26T20:02:00.377Z,8.37
2022-08-26T20:04:29.997Z,7.83
2022-08-26T20:07:00.412Z,8.40
2022-08-26T20:09:29.268Z,8.57
2022-08-26T20:11:59.047Z,8.97
2022-08-26T20:14:27.955Z,7.83
2022-08-26T20:16:56.568Z,8.10
2022-08-26T20:19:42.525Z,8.17
2022-08-26T20:22:11.498Z,8.43
2022-08-26T20:24:42.803Z,8.00
2022-08-26T20:27:12.533Z,7.70
2022-08-26T20:29:41.006Z,8.30
2022-08-26T20:32:11.011Z,8.10
2022-08-26T20:34:40.101Z,8.17
2022-08-26T20:37:09.226Z,8.20
2022-08-26T20:39:37.460Z,8.03
2022-08-26T20:42:06.833Z,8.00
2022-08-26T20:44:54.987Z,7.87
2022-08-26T20:47:23.723Z,8.23
2022-08-26T20:49:52.495Z,8.07
2022-08-26T20:52:21.082Z,8.53
2022-08-26T20:54:49.120Z,7.73
2022-08-26T20:57:17.303Z,8.10
2022-08-26T20:59:47.708Z,7.70
2022-08-26T21:02:17.515Z,8.23
2022-08-26T21:04:45.676Z,8.33
2022-08-26T21:07:13.771Z,8.17
2022-08-26T21:09:42.143Z,7.77
2022-08-26T21:12:10.235Z,8.60
2022-08-26T21:14:38.352Z,8.63
2022-08-26T21:17:06.413Z,9.53
2022-08-26T21:19:35.728Z,8.67
2022-08-26T21:22:04.095Z,8.67
2022-08-26T21:24:33.965Z,8.43
2022-08-26T21:27:01.965Z,8.20
2022-08-26T21:29:30.059Z,8.10
2022-08-26T21:31:58.985Z,8.33
2022-08-26T21:34:27.103Z,8.37
2022-08-26T21:36:56.827Z,8.27
2022-08-26T21:39:26.213Z,8.50
2022-08-26T21:41:54.549Z,8.87
2022-08-26T21:44:22.543Z,8.00
2022-08-26T21:46:50.779Z,8.30
2022-08-26T21:49:18.853Z,8.03
2022-08-26T21:51:48.777Z,7.37
2022-08-26T21:54:19.041Z,8.07
2022-08-26T21:56:47.758Z,8.17
2022-08-26T21:59:18.384Z,7.53
2022-08-26T22:01:47.119Z,7.97
2022-08-26T22:04:15.908Z,8.17
2022-08-26T22:06:50.085Z,6.87
2022-08-26T22:09:22.852Z,7.13
2022-08-26T22:11:51.840Z,7.43
2022-08-26T22:14:21.979Z,7.37
2022-08-26T22:16:50.527Z,7.80
2022-08-26T22:19:21.087Z,7.07
2022-08-26T22:21:56.027Z,7.57
2022-08-26T22:24:26.927Z,7.63
2022-08-26T22:26:55.865Z,8.07
2022-08-26T22:29:25.165Z,7.00
2022-08-26T22:31:58.522Z,6.90
2022-08-26T22:34:38.733Z,6.57
2022-08-26T22:37:06.925Z,6.50
2022-08-26T22:39:39.280Z,6.87
2022-08-26T22:42:07.575Z,7.40
2022-08-26T22:44:37.548Z,6.90
2022-08-26T22:47:08.887Z,6.67
2022-08-26T22:49:44.128Z,7.37
2022-08-26T22:52:15.196Z,6.93
2022-08-26T22:54:45.778Z,6.47
2022-08-26T22:57:15.786Z,6.23
2022-08-26T22:59:43.751Z,7.13
2022-08-26T23:02:19.205Z,6.60
2022-08-26T23:04:47.268Z,7.30
2022-08-26T23:07:18.444Z,6.90
2022-08-26T23:09:47.946Z,7.03
2022-08-26T23:12:18.040Z,7.30
2022-08-26T23:14:46.211Z,7.30
2022-08-26T23:17:14.429Z,7.13
2022-08-26T23:19:45.294Z,7.13
2022-08-26T23:22:13.299Z,6.27
2022-08-26T23:24:41.506Z,6.60
2022-08-26T23:27:11.210Z,6.30
2022-08-26T23:29:41.805Z,7.03
2022-08-26T23:32:10.212Z,6.67
2022-08-26T23:34:56.110Z,6.30
2022-08-26T23:37:24.509Z,7.23
2022-08-26T23:39:55.085Z,6.87
2022-08-26T23:42:24.626Z,6.57
2022-08-26T23:44:59.290Z,6.20
2022-08-26T23:47:33.942Z,6.10
2022-08-26T23:50:04.208Z,6.73
2022-08-26T23:52:49.668Z,6.87
2022-08-26T23:55:17.874Z,6.80
2022-08-26T23:57:47.334Z,6.13
